createdAt,value
2017-09-03T00:00:30.427Z,11.70
2017-09-03T00:02:57.987Z,11.80
2017-09-03T00:05:25.488Z,11.80
2017-09-03T00:07:53.003Z,11.80
2017-09-03T00:10:20.518Z,11.80
2017-09-03T00:12:48.080Z,11.80
2017-09-03T00:15:15.590Z,11.80
2017-09-03T00:17:43.103Z,11.80
2017-09-03T00:20:10.624Z,11.80
2017-09-03T00:22:38.123Z,11.70
2017-09-03T00:25:05.652Z,11.60
2017-09-03T00:27:33.175Z,11.50
2017-09-03T00:30:00.744Z,11.30
2017-09-03T00:32:28.273Z,11.20
2017-09-03T00:34:55.815Z,11.10
2017-09-03T00:37:23.322Z,11.00
2017-09-03T00:39:50.878Z,11.00
2017-09-03T00:42:18.432Z,11.00
2017-09-03T00:44:45.984Z,11.10
2017-09-03T00:47:13.487Z,11.10
2017-09-03T00:49:41.046Z,11.10
2017-09-03T00:52:08.572Z,11.10
2017-09-03T00:54:36.099Z,11.10
2017-09-03T00:57:03.617Z,11.20
2017-09-03T00:59:31.159Z,11.20
2017-09-03T01:01:58.690Z,11.20
2017-09-03T01:04:26.236Z,11.10
2017-09-03T01:06:53.740Z,11.00
2017-09-03T01:09:21.276Z,11.00
2017-09-03T01:11:48.871Z,10.90
2017-09-03T01:14:16.368Z,10.90
2017-09-03T01:16:44.447Z,11.00
2017-09-03T01:19:11.983Z,11.10
2017-09-03T01:21:39.518Z,11.10
2017-09-03T01:24:07.015Z,11.10
2017-09-03T01:26:34.548Z,11.00
2017-09-03T01:29:02.075Z,10.80
2017-09-03T01:31:29.585Z,10.70
2017-09-03T01:33:57.084Z,10.70
2017-09-03T01:36:24.598Z,10.60
2017-09-03T01:38:52.108Z,10.60
2017-09-03T01:41:19.620Z,10.80
2017-09-03T01:43:47.126Z,10.90
2017-09-03T01:46:14.662Z,10.90
2017-09-03T01:48:42.571Z,11.00
2017-09-03T01:51:10.071Z,11.00
2017-09-03T01:53:37.624Z,11.00
2017-09-03T01:56:05.123Z,11.00
2017-09-03T01:58:32.648Z,10.90
2017-09-03T02:01:00.166Z,10.90
2017-09-03T02:03:27.708Z,10.70
2017-09-03T02:05:55.204Z,10.60
2017-09-03T02:08:22.708Z,10.50
2017-09-03T02:10:50.251Z,10.40
2017-09-03T02:13:17.772Z,10.40
2017-09-03T02:15:45.319Z,10.30
2017-09-03T02:18:12.896Z,10.20
2017-09-03T02:20:40.407Z,10.20
2017-09-03T02:23:07.947Z,10.20
2017-09-03T02:25:35.456Z,10.40
2017-09-03T02:28:02.962Z,10.40
2017-09-03T02:30:30.472Z,10.50
2017-09-03T02:32:58.012Z,10.60
2017-09-03T02:35:25.532Z,10.60
2017-09-03T02:37:53.056Z,10.60
2017-09-03T02:40:20.573Z,10.60
2017-09-03T02:42:48.068Z,10.60
2017-09-03T02:45:15.592Z,10.50
2017-09-03T02:47:43.120Z,10.40
2017-09-03T02:50:10.644Z,10.30
2017-09-03T02:52:38.163Z,10.30
2017-09-03T02:55:05.679Z,10.30
2017-09-03T02:57:33.188Z,10.40
2017-09-03T03:00:00.697Z,10.50
2017-09-03T03:02:28.224Z,10.50
2017-09-03T03:04:55.759Z,10.50
2017-09-03T03:07:23.264Z,10.40
2017-09-03T03:09:50.820Z,10.30
2017-09-03T03:12:18.793Z,10.20
2017-09-03T03:14:46.296Z,10.10
2017-09-03T03:17:13.807Z,10.10
2017-09-03T03:19:41.322Z,10.10
2017-09-03T03:22:08.858Z,10.20
2017-09-03T03:24:36.378Z,10.20
2017-09-03T03:27:03.943Z,10.10
2017-09-03T03:29:31.468Z,10.10
2017-09-03T03:31:58.992Z,10.00
2017-09-03T03:34:26.553Z,9.90
2017-09-03T03:36:54.180Z,9.90
2017-09-03T03:39:21.740Z,9.80
2017-09-03T03:41:49.243Z,9.80
2017-09-03T03:44:16.809Z,9.90
2017-09-03T03:46:44.353Z,10.10
2017-09-03T03:49:11.879Z,10.20
2017-09-03T03:51:39.399Z,10.30
2017-09-03T03:54:06.992Z,10.30
2017-09-03T03:56:34.515Z,10.20
2017-09-03T03:59:02.064Z,10.00
2017-09-03T04:01:29.587Z,10.10
2017-09-03T04:03:57.124Z,10.10
2017-09-03T04:06:24.698Z,10.10
2017-09-03T04:08:52.261Z,10.20
2017-09-03T04:11:19.816Z,10.20
2017-09-03T04:13:47.374Z,10.20
2017-09-03T04:16:14.934Z,10.20
2017-09-03T04:18:42.499Z,10.00
2017-09-03T04:21:09.995Z,9.80
2017-09-03T04:23:37.526Z,9.80
2017-09-03T04:26:05.068Z,9.80
2017-09-03T04:28:32.619Z,9.90
2017-09-03T04:31:00.188Z,10.00
2017-09-03T04:33:27.747Z,10.00
2017-09-03T04:35:55.288Z,10.00
2017-09-03T04:38:22.901Z,10.00
2017-09-03T04:40:50.583Z,10.10
2017-09-03T04:43:18.131Z,9.90
2017-09-03T04:45:45.696Z,9.80
2017-09-03T04:48:13.381Z,9.70
2017-09-03T04:50:40.963Z,9.80
2017-09-03T04:53:08.465Z,9.90
2017-09-03T04:55:36.017Z,9.90
2017-09-03T04:58:03.626Z,10.00
2017-09-03T05:00:31.174Z,9.90
2017-09-03T05:02:58.729Z,9.80
2017-09-03T05:05:26.261Z,9.70
2017-09-03T05:07:53.847Z,9.70
2017-09-03T05:10:21.381Z,9.60
2017-09-03T05:12:49.037Z,9.70
2017-09-03T05:15:16.637Z,9.80
2017-09-03T05:17:44.172Z,9.80
2017-09-03T05:20:11.727Z,9.70
2017-09-03T05:22:39.333Z,9.70
2017-09-03T05:25:06.895Z,9.80
2017-09-03T05:27:34.477Z,10.00
2017-09-03T05:30:02.031Z,10.10
2017-09-03T05:32:29.560Z,10.20
2017-09-03T05:34:57.104Z,10.30
2017-09-03T05:37:24.643Z,10.30
2017-09-03T05:39:52.198Z,10.40
2017-09-03T05:42:19.741Z,10.40
2017-09-03T05:44:47.358Z,10.50
2017-09-03T05:47:14.914Z,10.60
2017-09-03T05:49:42.501Z,10.60
2017-09-03T05:52:10.085Z,10.70
2017-09-03T05:54:37.685Z,10.80
2017-09-03T05:57:05.225Z,10.80
2017-09-03T05:59:32.772Z,10.90
2017-09-03T06:02:00.323Z,10.90
2017-09-03T06:04:27.857Z,11.00
2017-09-03T06:06:55.434Z,11.10
2017-09-03T06:09:23.153Z,11.20
2017-09-03T06:11:50.679Z,11.20
2017-09-03T06:14:18.525Z,11.20
2017-09-03T06:16:46.135Z,11.20
2017-09-03T06:19:13.696Z,11.20
2017-09-03T06:21:41.516Z,11.30
2017-09-03T06:24:09.059Z,11.30
2017-09-03T06:26:36.575Z,11.40
2017-09-03T06:29:04.125Z,11.50
2017-09-03T06:31:31.693Z,11.60
2017-09-03T06:33:59.330Z,11.60
2017-09-03T06:36:26.839Z,11.70
2017-09-03T06:38:54.347Z,11.80
2017-09-03T06:41:21.867Z,11.90
2017-09-03T06:43:49.377Z,12.00
2017-09-03T06:46:16.952Z,12.10
2017-09-03T06:48:44.442Z,12.20
2017-09-03T06:51:11.983Z,12.30
2017-09-03T06:53:39.490Z,12.30
2017-09-03T06:56:07.021Z,12.30
2017-09-03T06:58:34.596Z,12.40
2017-09-03T07:01:02.167Z,12.50
2017-09-03T07:03:29.674Z,12.70
2017-09-03T07:05:57.183Z,12.80
2017-09-03T07:08:24.678Z,12.80
2017-09-03T07:10:52.229Z,12.90
2017-09-03T07:13:20.046Z,13.00
2017-09-03T07:15:47.523Z,13.10
2017-09-03T07:18:15.042Z,13.10
2017-09-03T07:20:42.537Z,13.20
2017-09-03T07:23:10.054Z,13.30
2017-09-03T07:25:37.595Z,13.30
2017-09-03T07:28:05.129Z,13.30
2017-09-03T07:30:32.732Z,13.40
2017-09-03T07:33:00.424Z,13.60
2017-09-03T07:35:27.935Z,13.70
2017-09-03T07:37:55.447Z,13.80
2017-09-03T07:40:22.997Z,13.90
2017-09-03T07:42:50.525Z,14.00
2017-09-03T07:45:18.054Z,14.10
2017-09-03T07:47:45.617Z,14.20
2017-09-03T07:50:13.192Z,14.30
2017-09-03T07:52:40.701Z,14.30
2017-09-03T07:55:08.243Z,14.40
2017-09-03T07:57:35.799Z,14.50
2017-09-03T08:00:03.306Z,14.60
2017-09-03T08:02:30.829Z,14.60
2017-09-03T08:04:58.413Z,14.70
2017-09-03T08:07:25.959Z,14.80
2017-09-03T08:09:53.480Z,14.90
2017-09-03T08:12:20.972Z,14.90
2017-09-03T08:14:48.496Z,14.90
2017-09-03T08:17:16.020Z,15.00
2017-09-03T08:19:43.701Z,15.20
2017-09-03T08:22:11.256Z,15.20
2017-09-03T08:24:38.872Z,15.20
2017-09-03T08:27:06.364Z,15.30
2017-09-03T08:29:33.879Z,15.40
2017-09-03T08:32:01.386Z,15.40
2017-09-03T08:34:28.875Z,15.50
2017-09-03T08:36:56.553Z,15.50
2017-09-03T08:39:24.198Z,15.60
2017-09-03T08:41:51.835Z,15.60
2017-09-03T08:44:19.423Z,15.60
2017-09-03T08:46:46.915Z,15.70
2017-09-03T08:49:14.544Z,15.70
2017-09-03T08:51:43.855Z,15.60
2017-09-03T08:54:11.588Z,15.60
2017-09-03T08:56:39.124Z,15.80
2017-09-03T08:59:06.725Z,15.80
2017-09-03T09:01:34.245Z,15.90
2017-09-03T09:04:01.747Z,15.90
2017-09-03T09:06:29.307Z,16.00
2017-09-03T09:08:56.860Z,16.10
2017-09-03T09:11:24.396Z,16.10
2017-09-03T09:13:51.914Z,16.10
2017-09-03T09:16:19.514Z,16.00
2017-09-03T09:18:47.057Z,16.20
2017-09-03T09:21:14.601Z,16.20
2017-09-03T09:23:42.091Z,16.20
2017-09-03T09:26:09.618Z,16.20
2017-09-03T09:28:37.153Z,16.40
2017-09-03T09:31:04.695Z,16.60
2017-09-03T09:33:32.228Z,16.70
2017-09-03T09:35:59.766Z,16.90
2017-09-03T09:38:27.283Z,17.10
2017-09-03T09:40:54.795Z,17.20
2017-09-03T09:43:22.335Z,17.40
2017-09-03T09:45:49.857Z,17.50
2017-09-03T09:48:17.471Z,17.60
2017-09-03T09:50:45.062Z,17.80
2017-09-03T09:53:12.693Z,17.80
2017-09-03T09:55:40.204Z,17.70
2017-09-03T09:58:07.817Z,17.70
2017-09-03T10:00:35.465Z,17.60
2017-09-03T10:03:03.063Z,17.50
2017-09-03T10:05:30.591Z,17.40
2017-09-03T10:07:58.103Z,17.20
2017-09-03T10:10:25.630Z,17.20
2017-09-03T10:12:53.211Z,17.20
2017-09-03T10:15:20.748Z,17.10
2017-09-03T10:17:48.321Z,17.10
2017-09-03T10:20:15.842Z,17.10
2017-09-03T10:22:43.402Z,17.20
2017-09-03T10:25:10.888Z,17.30
2017-09-03T10:27:38.397Z,17.50
2017-09-03T10:30:05.895Z,17.70
2017-09-03T10:32:33.440Z,17.90
2017-09-03T10:35:00.936Z,18.00
2017-09-03T10:37:28.474Z,18.10
2017-09-03T10:39:55.995Z,18.20
2017-09-03T10:42:23.494Z,18.30
2017-09-03T10:44:51.014Z,18.30
2017-09-03T10:47:18.541Z,18.40
2017-09-03T10:49:46.080Z,18.40
2017-09-03T10:52:13.580Z,18.40
2017-09-03T10:54:41.102Z,18.30
2017-09-03T10:57:08.620Z,18.20
2017-09-03T10:59:36.156Z,18.10
2017-09-03T11:02:03.653Z,18.00
2017-09-03T11:04:31.200Z,17.90
2017-09-03T11:06:58.882Z,17.80
2017-09-03T11:09:26.475Z,17.70
2017-09-03T11:11:54.057Z,17.70
2017-09-03T11:14:21.687Z,17.70
2017-09-03T11:16:49.253Z,17.80
2017-09-03T11:19:16.767Z,17.90
2017-09-03T11:21:44.357Z,17.90
2017-09-03T11:24:11.868Z,17.90
2017-09-03T11:26:40.884Z,18.10
2017-09-03T11:29:08.443Z,18.30
2017-09-03T11:31:35.954Z,18.30
2017-09-03T11:34:03.524Z,18.40
2017-09-03T11:36:31.088Z,18.40
2017-09-03T11:38:58.633Z,18.40
2017-09-03T11:41:26.166Z,18.60
2017-09-03T11:43:53.811Z,18.70
2017-09-03T11:46:21.519Z,18.60
2017-09-03T11:48:49.091Z,18.60
2017-09-03T11:51:16.619Z,18.60
2017-09-03T11:53:44.155Z,18.40
2017-09-03T11:56:11.734Z,18.60
2017-09-03T11:58:39.267Z,18.50
2017-09-03T12:01:06.781Z,18.50
2017-09-03T12:03:34.409Z,18.50
2017-09-03T12:06:01.912Z,18.50
2017-09-03T12:08:29.451Z,18.40
2017-09-03T12:10:57.063Z,18.30
2017-09-03T12:13:24.616Z,18.40
2017-09-03T12:15:52.174Z,18.40
2017-09-03T12:18:19.731Z,18.30
2017-09-03T12:20:47.248Z,18.40
2017-09-03T12:23:14.756Z,18.40
2017-09-03T12:25:42.399Z,18.40
2017-09-03T12:28:09.923Z,18.40
2017-09-03T12:30:37.430Z,18.40
2017-09-03T12:33:04.959Z,18.40
2017-09-03T12:35:32.479Z,18.50
2017-09-03T12:37:59.965Z,18.40
2017-09-03T12:40:27.497Z,18.30
2017-09-03T12:42:54.982Z,18.20
2017-09-03T12:45:22.488Z,18.20
2017-09-03T12:47:50.003Z,18.30
2017-09-03T12:50:17.546Z,18.30
2017-09-03T12:52:45.042Z,18.30
2017-09-03T12:55:12.659Z,18.40
2017-09-03T12:57:40.209Z,18.50
2017-09-03T13:00:07.734Z,18.70
2017-09-03T13:02:35.297Z,18.80
2017-09-03T13:05:03.031Z,19.00
2017-09-03T13:07:30.511Z,19.20
2017-09-03T13:09:58.064Z,19.40
2017-09-03T13:12:25.627Z,19.60
2017-09-03T13:14:53.194Z,19.80
2017-09-03T13:17:20.696Z,19.90
2017-09-03T13:19:48.244Z,20.00
2017-09-03T13:22:15.735Z,20.20
2017-09-03T13:24:43.267Z,20.30
2017-09-03T13:27:10.762Z,20.30
2017-09-03T13:29:38.347Z,20.20
2017-09-03T13:32:05.853Z,20.00
2017-09-03T13:34:33.381Z,19.90
2017-09-03T13:37:00.918Z,19.70
2017-09-03T13:39:28.490Z,19.60
2017-09-03T13:41:56.075Z,19.50
2017-09-03T13:44:23.685Z,19.40
2017-09-03T13:46:51.259Z,19.30
2017-09-03T13:49:18.806Z,19.40
2017-09-03T13:51:46.421Z,19.30
2017-09-03T13:54:13.982Z,19.40
2017-09-03T13:56:41.499Z,19.40
2017-09-03T13:59:09.015Z,19.50
2017-09-03T14:01:36.571Z,19.40
2017-09-03T14:04:04.075Z,19.40
2017-09-03T14:06:31.607Z,19.40
2017-09-03T14:08:59.134Z,19.30
2017-09-03T14:11:26.647Z,19.30
2017-09-03T14:13:54.175Z,19.20
2017-09-03T14:16:21.828Z,19.20
2017-09-03T14:18:49.383Z,19.10
2017-09-03T14:21:16.934Z,19.10
2017-09-03T14:23:44.508Z,19.00
2017-09-03T14:26:12.055Z,19.00
2017-09-03T14:28:39.618Z,19.10
2017-09-03T14:31:07.120Z,19.10
2017-09-03T14:33:34.659Z,19.10
2017-09-03T14:36:02.211Z,19.20
2017-09-03T14:38:29.730Z,19.20
2017-09-03T14:40:57.270Z,19.30
2017-09-03T14:43:24.857Z,19.30
2017-09-03T14:45:52.380Z,19.20
2017-09-03T14:48:19.878Z,19.10
2017-09-03T14:50:47.395Z,19.10
2017-09-03T14:53:14.900Z,19.10
2017-09-03T14:55:42.442Z,19.00
2017-09-03T14:58:10.022Z,19.00
2017-09-03T15:00:37.552Z,18.90
2017-09-03T15:03:05.053Z,18.80
2017-09-03T15:05:32.601Z,18.80
2017-09-03T15:08:00.168Z,18.90
2017-09-03T15:10:27.746Z,18.90
2017-09-03T15:12:55.267Z,18.90
2017-09-03T15:15:22.784Z,19.10
2017-09-03T15:17:50.332Z,19.10
2017-09-03T15:20:17.910Z,19.30
2017-09-03T15:22:45.441Z,19.20
2017-09-03T15:25:12.968Z,19.20
2017-09-03T15:27:40.487Z,19.10
2017-09-03T15:30:08.013Z,19.10
2017-09-03T15:32:35.563Z,19.10
2017-09-03T15:35:03.243Z,18.90
2017-09-03T15:37:30.805Z,19.00
2017-09-03T15:39:58.361Z,18.90
2017-09-03T15:42:25.903Z,18.90
2017-09-03T15:44:53.433Z,18.80
2017-09-03T15:47:21.178Z,18.80
2017-09-03T15:49:48.715Z,18.80
2017-09-03T15:52:16.257Z,18.80
2017-09-03T15:54:43.829Z,18.80
2017-09-03T15:57:11.366Z,18.80
2017-09-03T15:59:38.927Z,18.80
2017-09-03T16:02:06.536Z,19.00
2017-09-03T16:04:36.604Z,18.90
2017-09-03T16:07:04.178Z,18.80
2017-09-03T16:09:31.889Z,18.90
2017-09-03T16:11:59.431Z,18.90
2017-09-03T16:14:26.980Z,18.90
2017-09-03T16:16:54.579Z,18.80
2017-09-03T16:19:22.164Z,18.70
2017-09-03T16:21:49.910Z,18.60
2017-09-03T16:24:17.415Z,18.60
2017-09-03T16:26:44.971Z,18.50
2017-09-03T16:29:12.981Z,18.50
2017-09-03T16:31:40.533Z,18.30
2017-09-03T16:34:08.056Z,18.20
2017-09-03T16:36:35.697Z,18.10
2017-09-03T16:39:03.266Z,18.10
2017-09-03T16:41:30.831Z,18.00
2017-09-03T16:43:58.389Z,17.90
2017-09-03T16:46:25.986Z,18.00
2017-09-03T16:51:22.117Z,17.80
2017-09-03T16:53:49.648Z,18.00
2017-09-03T16:56:17.195Z,17.90
2017-09-03T16:58:44.731Z,17.90
2017-09-03T17:01:12.271Z,17.90
2017-09-03T17:03:39.802Z,17.90
2017-09-03T17:06:07.331Z,17.90
2017-09-03T17:08:34.878Z,17.80
2017-09-03T17:11:02.554Z,17.90
2017-09-03T17:13:30.120Z,17.80
2017-09-03T17:15:57.622Z,17.80
2017-09-03T17:18:25.196Z,17.70
2017-09-03T17:20:53.524Z,17.70
2017-09-03T17:23:21.175Z,17.60
2017-09-03T17:25:48.842Z,17.40
2017-09-03T17:28:16.346Z,17.30
2017-09-03T17:30:44.841Z,17.30
2017-09-03T17:33:12.381Z,17.10
2017-09-03T17:35:45.387Z,17.00
2017-09-03T17:38:22.879Z,17.00
2017-09-03T17:40:51.039Z,17.00
2017-09-03T17:43:19.101Z,16.90
2017-09-03T17:45:47.344Z,16.90
2017-09-03T17:48:14.963Z,16.90
2017-09-03T17:50:42.559Z,17.00
2017-09-03T17:53:10.187Z,16.90
2017-09-03T17:55:37.752Z,16.80
2017-09-03T17:58:05.359Z,16.70
2017-09-03T18:00:32.911Z,16.70
2017-09-03T18:03:00.488Z,16.70
2017-09-03T18:05:28.125Z,16.60
2017-09-03T18:07:55.785Z,16.60
2017-09-03T18:10:23.383Z,16.60
2017-09-03T18:12:50.963Z,16.50
2017-09-03T18:15:18.604Z,16.50
2017-09-03T18:17:46.221Z,16.50
2017-09-03T18:20:13.774Z,16.50
2017-09-03T18:22:41.345Z,16.40
2017-09-03T18:25:09.037Z,16.40
2017-09-03T18:27:36.598Z,16.30
2017-09-03T18:30:04.218Z,16.30
2017-09-03T18:32:31.864Z,16.20
2017-09-03T18:34:59.501Z,16.10
2017-09-03T18:37:30.759Z,16.10
2017-09-03T18:40:05.063Z,16.00
2017-09-03T18:42:34.203Z,15.90
2017-09-03T18:45:02.026Z,15.80
2017-09-03T18:47:29.593Z,15.80
2017-09-03T18:49:59.952Z,15.70
2017-09-03T18:52:28.463Z,15.60
2017-09-03T18:54:56.081Z,15.60
2017-09-03T18:57:24.326Z,15.50
2017-09-03T18:59:52.652Z,15.40
2017-09-03T19:02:20.974Z,15.30
2017-09-03T19:04:48.479Z,15.20
2017-09-03T19:07:16.020Z,15.20
2017-09-03T19:09:43.596Z,15.10
2017-09-03T19:12:11.134Z,15.00
2017-09-03T19:14:38.717Z,15.00
2017-09-03T19:17:06.259Z,14.90
2017-09-03T19:19:33.811Z,14.80
2017-09-03T19:22:01.366Z,14.80
2017-09-03T19:24:29.007Z,14.70
2017-09-03T19:26:56.543Z,14.70
2017-09-03T19:29:24.106Z,14.60
2017-09-03T19:31:51.724Z,14.50
2017-09-03T19:34:19.345Z,14.50
2017-09-03T19:36:47.770Z,14.40
2017-09-03T19:39:15.381Z,14.40
2017-09-03T19:41:42.947Z,14.40
2017-09-03T19:44:10.553Z,14.30
2017-09-03T19:46:38.109Z,14.30
2017-09-03T19:49:05.672Z,14.20
2017-09-03T19:51:33.215Z,14.20
2017-09-03T19:54:00.815Z,14.10
2017-09-03T19:56:28.344Z,14.10
2017-09-03T19:58:55.906Z,14.10
2017-09-03T20:01:25.401Z,14.00
2017-09-03T20:03:52.960Z,14.00
2017-09-03T20:06:20.575Z,14.00
2017-09-03T20:08:48.131Z,13.90
2017-09-03T20:11:15.636Z,13.90
2017-09-03T20:13:43.179Z,13.90
2017-09-03T20:16:10.696Z,13.80
2017-09-03T20:18:38.323Z,13.80
2017-09-03T20:21:05.840Z,13.80
2017-09-03T20:23:33.348Z,13.70
2017-09-03T20:26:00.910Z,13.70
2017-09-03T20:28:28.427Z,13.70
2017-09-03T20:30:56.067Z,13.60
2017-09-03T20:33:23.571Z,13.60
2017-09-03T20:35:51.121Z,13.60
2017-09-03T20:38:18.655Z,13.60
2017-09-03T20:40:46.197Z,13.50
2017-09-03T20:43:13.717Z,13.50
2017-09-03T20:45:41.256Z,13.50
2017-09-03T20:48:08.788Z,13.40
2017-09-03T20:50:36.873Z,13.40
2017-09-03T20:53:04.407Z,13.40
2017-09-03T20:55:32.112Z,13.30
2017-09-03T20:57:59.673Z,13.20
2017-09-03T21:00:27.246Z,13.00
2017-09-03T21:02:54.911Z,13.00
2017-09-03T21:05:22.469Z,12.90
2017-09-03T21:07:50.083Z,13.00
2017-09-03T21:10:17.848Z,13.00
2017-09-03T21:12:45.393Z,12.90
2017-09-03T21:15:12.935Z,12.90
2017-09-03T21:17:40.508Z,12.80
2017-09-03T21:20:08.077Z,12.90
2017-09-03T21:22:35.678Z,12.90
2017-09-03T21:25:03.243Z,12.90
2017-09-03T21:27:30.847Z,12.90
2017-09-03T21:29:58.369Z,12.90
2017-09-03T21:32:25.927Z,12.80
2017-09-03T21:34:53.525Z,12.80
2017-09-03T21:37:21.094Z,12.80
2017-09-03T21:39:48.633Z,12.80
2017-09-03T21:42:16.157Z,12.80
2017-09-03T21:44:43.720Z,12.80
2017-09-03T21:47:11.217Z,12.70
2017-09-03T21:49:38.736Z,12.70
2017-09-03T21:52:06.342Z,12.70
2017-09-03T21:54:33.881Z,12.50
2017-09-03T21:57:01.398Z,12.50
2017-09-03T21:59:28.970Z,12.50
2017-09-03T22:01:56.496Z,12.40
2017-09-03T22:04:24.019Z,12.30
2017-09-03T22:06:51.544Z,12.40
2017-09-03T22:09:19.075Z,12.40
2017-09-03T22:11:46.659Z,12.40
2017-09-03T22:14:14.157Z,12.40
2017-09-03T22:16:41.675Z,12.40
2017-09-03T22:19:09.200Z,12.50
2017-09-03T22:21:36.756Z,12.50
2017-09-03T22:24:04.321Z,12.40
2017-09-03T22:26:31.858Z,12.30
2017-09-03T22:28:59.404Z,12.20
2017-09-03T22:31:26.940Z,12.10
2017-09-03T22:33:54.514Z,12.10
2017-09-03T22:36:22.033Z,12.00
2017-09-03T22:38:49.588Z,11.90
2017-09-03T22:41:17.141Z,11.90
2017-09-03T22:43:44.667Z,12.10
2017-09-03T22:46:12.214Z,12.10
2017-09-03T22:48:39.752Z,12.10
2017-09-03T22:51:07.284Z,11.90
2017-09-03T22:53:34.802Z,11.80
2017-09-03T22:56:02.354Z,11.70
2017-09-03T22:58:29.909Z,11.70
2017-09-03T23:00:57.460Z,11.90
2017-09-03T23:03:24.985Z,11.90
2017-09-03T23:05:52.492Z,11.70
2017-09-03T23:08:20.005Z,11.70
2017-09-03T23:10:47.551Z,11.60
2017-09-03T23:13:15.115Z,11.70
2017-09-03T23:15:42.661Z,11.70
2017-09-03T23:18:10.233Z,11.60
2017-09-03T23:20:37.749Z,11.60
2017-09-03T23:23:05.296Z,11.60
2017-09-03T23:25:32.808Z,11.70
2017-09-03T23:28:00.494Z,11.70
2017-09-03T23:30:27.989Z,11.60
2017-09-03T23:32:55.522Z,11.40
2017-09-03T23:35:22.999Z,11.40
2017-09-03T23:37:50.581Z,11.50
2017-09-03T23:40:18.101Z,11.50
2017-09-03T23:42:45.615Z,11.50
2017-09-03T23:45:13.147Z,11.40
2017-09-03T23:47:40.662Z,11.30
2017-09-03T23:50:08.161Z,11.40
2017-09-03T23:52:35.689Z,11.50
2017-09-03T23:55:03.184Z,11.50
2017-09-03T23:57:30.704Z,11.40
2017-09-03T23:59:58.226Z,11.30
